createdAt,value
2023-11-24T00:00:14.126Z,88.15
2023-11-24T00:03:17.466Z,88.41
2023-11-24T00:06:22.240Z,87.97
2023-11-24T00:09:28.638Z,88.09
2023-11-24T00:12:31.652Z,89.25
2023-11-24T00:15:35.125Z,88.98
2023-11-24T00:18:38.585Z,89.63
2023-11-24T00:21:42.485Z,90.01
2023-11-24T00:24:45.882Z,89.66
2023-11-24T00:27:50.702Z,89.71
2023-11-24T00:30:55.824Z,89.84
2023-11-24T00:33:59.173Z,88.86
2023-11-24T00:37:02.614Z,88.83
2023-11-24T00:40:09.305Z,89.26
2023-11-24T00:43:12.736Z,89.29
2023-11-24T00:46:16.467Z,89.39
2023-11-24T00:49:20.808Z,89.81
2023-11-24T00:52:24.238Z,88.44
2023-11-24T00:55:28.011Z,88.74
2023-11-24T00:58:31.049Z,88.63
2023-11-24T01:01:34.399Z,89.74
2023-11-24T01:04:37.470Z,89.83
2023-11-24T01:07:41.628Z,89.75
2023-11-24T01:10:45.147Z,89.45
2023-11-24T01:13:48.245Z,88.96
2023-11-24T01:16:51.826Z,89.09
2023-11-24T01:19:55.080Z,89.08
2023-11-24T01:22:58.135Z,89.20
2023-11-24T01:26:01.658Z,89.30
2023-11-24T01:29:04.929Z,89.42
2023-11-24T01:32:08.898Z,89.14
2023-11-24T01:35:12.238Z,89.72
2023-11-24T01:38:15.436Z,89.15
2023-11-24T01:41:19.418Z,88.57
2023-11-24T01:44:23.817Z,88.28
2023-11-24T01:47:29.237Z,88.67
2023-11-24T01:50:32.810Z,88.64
2023-11-24T01:53:36.121Z,89.18
2023-11-24T01:56:39.797Z,89.09
2023-11-24T01:59:43.235Z,89.33
2023-11-24T02:02:46.434Z,90.11
2023-11-24T02:05:49.732Z,89.54
2023-11-24T02:08:53.125Z,89.21
2023-11-24T02:11:56.437Z,88.97
2023-11-24T02:14:59.615Z,88.60
2023-11-24T02:18:02.698Z,89.08
2023-11-24T02:21:06.584Z,89.59
2023-11-24T02:24:10.889Z,89.58
2023-11-24T02:27:14.844Z,89.09
2023-11-24T02:30:18.389Z,89.68
2023-11-24T02:33:22.043Z,89.43
2023-11-24T02:36:29.147Z,90.20
2023-11-24T02:39:32.199Z,90.22
2023-11-24T02:42:38.547Z,90.70
2023-11-24T02:45:41.726Z,91.61
2023-11-24T02:48:45.810Z,92.54
2023-11-24T02:51:49.246Z,92.44
2023-11-24T02:54:53.749Z,92.68
2023-11-24T02:57:58.080Z,92.52
2023-11-24T03:01:02.554Z,93.15
2023-11-24T03:04:06.162Z,93.49
2023-11-24T03:07:10.515Z,92.13
2023-11-24T03:10:13.583Z,92.27
2023-11-24T03:13:16.781Z,92.34
2023-11-24T03:16:20.006Z,92.10
2023-11-24T03:19:23.397Z,91.88
2023-11-24T03:22:26.575Z,91.75
2023-11-24T03:25:30.434Z,91.24
2023-11-24T03:28:35.479Z,90.77
2023-11-24T03:31:40.886Z,89.81
2023-11-24T03:34:44.116Z,90.30
2023-11-24T03:37:47.831Z,90.29
2023-11-24T03:40:55.338Z,91.16
2023-11-24T03:43:58.571Z,91.82
2023-11-24T03:47:01.807Z,92.08
2023-11-24T03:50:05.029Z,92.02
2023-11-24T03:53:09.552Z,92.01
2023-11-24T03:56:15.676Z,92.06
2023-11-24T03:59:18.491Z,91.81
2023-11-24T04:02:21.409Z,92.68
2023-11-24T04:05:24.208Z,91.82
2023-11-24T04:08:27.288Z,91.04
2023-11-24T04:11:30.351Z,91.18
2023-11-24T04:14:33.380Z,90.89
2023-11-24T04:17:37.644Z,91.03
2023-11-24T04:20:40.817Z,90.82
2023-11-24T04:23:45.281Z,90.42
2023-11-24T04:26:48.443Z,90.83
2023-11-24T04:29:51.568Z,90.81
2023-11-24T04:32:54.710Z,89.72
2023-11-24T04:35:59.120Z,90.40
2023-11-24T04:39:01.942Z,90.04
2023-11-24T04:42:05.351Z,89.56
2023-11-24T04:45:12.338Z,89.18
2023-11-24T04:48:16.673Z,89.04
2023-11-24T04:51:19.814Z,89.39
2023-11-24T04:54:22.906Z,89.30
2023-11-24T04:57:25.960Z,89.64
2023-11-24T05:00:29.536Z,88.42
2023-11-24T05:03:32.667Z,89.81
2023-11-24T05:06:35.487Z,89.10
2023-11-24T05:09:38.802Z,88.46
2023-11-24T05:12:42.004Z,88.74
2023-11-24T05:15:45.067Z,88.55
2023-11-24T05:18:50.564Z,88.08
2023-11-24T05:21:53.486Z,88.07
2023-11-24T05:24:56.700Z,87.92
2023-11-24T05:27:59.821Z,88.02
2023-11-24T05:31:05.141Z,88.07
2023-11-24T05:34:08.498Z,87.92
2023-11-24T05:37:12.247Z,87.19
2023-11-24T05:40:17.312Z,87.22
2023-11-24T05:43:21.078Z,86.56
2023-11-24T05:46:24.125Z,87.16
2023-11-24T05:49:27.362Z,87.40
2023-11-24T05:52:30.439Z,87.20
2023-11-24T05:55:33.565Z,86.96
2023-11-24T05:58:36.773Z,87.05
2023-11-24T06:01:39.791Z,87.09
2023-11-24T06:04:43.017Z,85.65
2023-11-24T06:07:47.815Z,85.25
2023-11-24T06:10:52.684Z,84.99
2023-11-24T06:13:55.696Z,84.60
2023-11-24T06:16:58.721Z,84.06
2023-11-24T06:20:02.017Z,84.09
2023-11-24T06:23:05.301Z,84.06
2023-11-24T06:26:11.161Z,84.00
2023-11-24T06:29:14.169Z,84.39
2023-11-24T06:32:17.532Z,84.83
2023-11-24T06:35:20.689Z,85.22
2023-11-24T06:38:23.824Z,84.57
2023-11-24T06:41:26.866Z,85.06
2023-11-24T06:44:30.030Z,84.85
2023-11-24T06:47:33.199Z,84.71
2023-11-24T06:50:36.244Z,83.85
2023-11-24T06:53:39.464Z,83.36
2023-11-24T06:56:42.932Z,84.63
2023-11-24T06:59:46.225Z,84.01
2023-11-24T07:02:50.073Z,83.22
2023-11-24T07:05:53.324Z,84.28
2023-11-24T07:08:56.824Z,84.06
2023-11-24T07:12:00.035Z,84.83
2023-11-24T07:15:04.777Z,82.95
2023-11-24T07:18:08.346Z,84.20
2023-11-24T07:21:11.816Z,83.91
2023-11-24T07:24:14.641Z,82.16
2023-11-24T07:27:18.485Z,80.95
2023-11-24T07:30:23.921Z,82.62
2023-11-24T07:33:30.634Z,82.12
2023-11-24T07:36:33.950Z,80.08
2023-11-24T07:39:37.718Z,78.97
2023-11-24T07:42:43.034Z,76.42
2023-11-24T07:45:50.260Z,76.07
2023-11-24T07:48:53.359Z,77.03
2023-11-24T07:52:05.743Z,78.35
2023-11-24T07:55:09.273Z,78.74
2023-11-24T07:58:12.360Z,79.29
2023-11-24T08:01:15.943Z,75.89
2023-11-24T08:04:19.182Z,73.43
2023-11-24T08:07:23.175Z,75.71
2023-11-24T08:10:28.196Z,71.08
2023-11-24T08:13:31.202Z,71.94
2023-11-24T08:16:34.399Z,73.07
2023-11-24T08:19:37.764Z,73.00
2023-11-24T08:22:41.019Z,72.62
2023-11-24T08:25:44.237Z,71.75
2023-11-24T08:28:47.302Z,71.41
2023-11-24T08:31:51.126Z,70.75
2023-11-24T08:34:55.280Z,70.05
2023-11-24T08:37:58.645Z,67.97
2023-11-24T08:41:02.205Z,67.31
2023-11-24T08:44:06.105Z,66.37
2023-11-24T08:47:09.911Z,65.79
2023-11-24T08:50:14.554Z,63.93
2023-11-24T08:53:17.637Z,64.15
2023-11-24T08:56:21.365Z,64.71
2023-11-24T08:59:27.484Z,65.01
2023-11-24T09:02:32.220Z,64.07
2023-11-24T09:05:36.041Z,64.70
2023-11-24T09:08:39.168Z,65.54
2023-11-24T09:11:42.255Z,65.09
2023-11-24T09:14:45.422Z,64.86
2023-11-24T09:17:48.285Z,65.62
2023-11-24T09:20:51.268Z,64.93
2023-11-24T09:23:54.748Z,64.78
2023-11-24T09:27:05.122Z,66.32
2023-11-24T09:30:13.118Z,65.42
2023-11-24T09:33:18.115Z,63.80
2023-11-24T09:36:21.567Z,65.13
2023-11-24T09:39:28.398Z,63.84
2023-11-24T09:42:33.766Z,64.84
2023-11-24T09:45:36.961Z,65.24
2023-11-24T09:48:46.087Z,65.79
2023-11-24T09:51:49.522Z,66.57
2023-11-24T09:54:59.117Z,66.72
2023-11-24T09:58:04.218Z,68.04
2023-11-24T10:01:20.097Z,67.52
2023-11-24T10:04:23.263Z,68.15
2023-11-24T10:07:26.566Z,67.77
2023-11-24T10:10:30.495Z,68.71
2023-11-24T10:13:34.164Z,68.28
2023-11-24T10:16:42.252Z,67.95
2023-11-24T10:19:45.635Z,68.18
2023-11-24T10:22:52.071Z,68.78
2023-11-24T10:25:55.230Z,69.49
2023-11-24T10:28:58.882Z,69.38
2023-11-24T10:32:03.846Z,68.83
2023-11-24T10:35:08.446Z,68.92
2023-11-24T10:38:15.750Z,68.44
2023-11-24T10:41:24.427Z,68.34
2023-11-24T10:44:27.709Z,68.60
2023-11-24T10:47:37.935Z,69.42
2023-11-24T10:50:50.848Z,68.88
2023-11-24T10:54:01.558Z,69.48
2023-11-24T10:57:07.273Z,69.34
2023-11-24T11:00:14.947Z,69.04
2023-11-24T11:03:18.434Z,68.31
2023-11-24T11:06:36.294Z,67.89
2023-11-24T11:10:03.662Z,68.23
2023-11-24T11:13:07.509Z,68.07
2023-11-24T11:16:13.762Z,66.77
2023-11-24T11:19:33.981Z,68.55
2023-11-24T11:22:39.270Z,68.65
2023-11-24T11:25:45.848Z,68.75
2023-11-24T11:28:58.755Z,68.34
2023-11-24T11:32:02.824Z,68.88
2023-11-24T11:35:06.452Z,67.65
2023-11-24T11:38:15.444Z,67.42
2023-11-24T11:41:42.781Z,67.24
2023-11-24T11:44:56.883Z,67.07
2023-11-24T11:48:04.044Z,66.73
2023-11-24T11:51:14.680Z,66.02
2023-11-24T11:54:18.146Z,67.45
2023-11-24T11:57:24.982Z,66.59
2023-11-24T12:00:30.043Z,65.47
2023-11-24T12:03:36.226Z,64.79
2023-11-24T12:06:40.071Z,63.71
2023-11-24T12:09:43.418Z,63.40
2023-11-24T12:12:46.870Z,61.55
2023-11-24T12:15:50.082Z,60.90
2023-11-24T12:18:53.401Z,61.43
2023-11-24T12:21:58.988Z,59.16
2023-11-24T12:25:03.540Z,59.60
2023-11-24T12:28:10.756Z,59.18
2023-11-24T12:31:14.034Z,57.66
2023-11-24T12:34:24.782Z,58.82
2023-11-24T12:37:30.125Z,60.10
2023-11-24T12:40:35.793Z,58.54
2023-11-24T12:43:38.916Z,59.67
2023-11-24T12:46:42.155Z,59.84
2023-11-24T12:50:12.165Z,60.30
2023-11-24T12:53:16.851Z,62.08
2023-11-24T12:56:19.940Z,61.74
2023-11-24T12:59:23.807Z,61.75
2023-11-24T13:02:28.986Z,62.45
2023-11-24T13:05:35.219Z,61.93
2023-11-24T13:08:39.133Z,62.27
2023-11-24T13:11:42.184Z,62.44
2023-11-24T13:14:46.416Z,62.22
2023-11-24T13:17:50.576Z,61.80
2023-11-24T13:20:54.131Z,61.10
2023-11-24T13:23:57.719Z,60.92
2023-11-24T13:27:01.105Z,62.25
2023-11-24T13:30:11.030Z,62.26
2023-11-24T13:33:16.194Z,61.85
2023-11-24T13:36:22.887Z,59.81
2023-11-24T13:39:30.397Z,60.98
2023-11-24T13:42:35.540Z,62.79
2023-11-24T13:45:43.288Z,61.19
2023-11-24T13:48:47.705Z,59.81
2023-11-24T13:51:54.332Z,62.33
2023-11-24T13:54:58.189Z,60.95
2023-11-24T13:58:02.028Z,61.38
2023-11-24T14:01:07.110Z,61.95
2023-11-24T14:04:12.968Z,63.09
2023-11-24T14:07:17.502Z,64.40
2023-11-24T14:10:23.094Z,64.06
2023-11-24T14:13:28.746Z,65.40
2023-11-24T14:22:53.646Z,64.56
2023-11-24T14:25:57.391Z,64.94
2023-11-24T14:29:02.564Z,64.61
2023-11-24T14:32:08.658Z,65.09
2023-11-24T14:35:12.874Z,65.35
2023-11-24T14:38:16.611Z,65.93
2023-11-24T14:41:20.909Z,65.92
2023-11-24T14:44:25.127Z,66.64
2023-11-24T14:47:29.170Z,66.56
2023-11-24T14:50:33.038Z,66.36
2023-11-24T14:53:38.185Z,66.97
2023-11-24T14:56:41.974Z,65.91
2023-11-24T14:59:45.361Z,66.87
2023-11-24T15:02:49.660Z,65.66
2023-11-24T15:05:56.620Z,65.39
2023-11-24T15:09:07.181Z,65.64
2023-11-24T15:12:10.913Z,65.25
2023-11-24T15:15:16.612Z,65.59
2023-11-24T15:18:21.811Z,65.41
2023-11-24T15:21:36.412Z,65.86
2023-11-24T15:24:40.003Z,66.10
2023-11-24T15:27:44.320Z,66.69
2023-11-24T15:30:53.083Z,65.94
2023-11-24T15:34:00.744Z,66.18
2023-11-24T15:37:05.158Z,66.33
2023-11-24T15:40:13.294Z,66.99
2023-11-24T15:43:21.353Z,67.14
2023-11-24T15:46:31.371Z,67.13
2023-11-24T15:49:37.222Z,66.73
2023-11-24T15:52:45.217Z,65.88
2023-11-24T15:55:50.924Z,66.07
2023-11-24T15:58:56.713Z,65.64
2023-11-24T16:02:01.973Z,66.18
2023-11-24T16:05:07.804Z,65.07
2023-11-24T16:08:13.004Z,64.80
2023-11-24T16:11:17.374Z,64.65
2023-11-24T16:14:21.263Z,64.08
2023-11-24T16:17:25.170Z,64.06
2023-11-24T16:20:29.065Z,64.04
2023-11-24T16:23:33.574Z,63.58
2023-11-24T16:26:38.050Z,63.42
2023-11-24T16:29:44.004Z,63.41
2023-11-24T16:32:48.186Z,63.29
2023-11-24T16:35:51.772Z,62.96
2023-11-24T16:38:56.047Z,63.51
2023-11-24T16:42:01.360Z,63.75
2023-11-24T16:45:09.749Z,63.88
2023-11-24T16:48:13.323Z,63.88
2023-11-24T16:51:17.448Z,64.00
2023-11-24T16:54:21.306Z,64.21
2023-11-24T16:57:29.747Z,64.23
2023-11-24T17:00:33.338Z,64.37
2023-11-24T17:03:41.010Z,63.87
2023-11-24T17:06:48.689Z,64.38
2023-11-24T17:09:58.072Z,64.54
2023-11-24T17:13:03.278Z,64.91
2023-11-24T17:16:08.070Z,64.69
2023-11-24T17:19:14.164Z,64.89
2023-11-24T17:22:17.260Z,65.15
2023-11-24T17:25:32.160Z,65.65
2023-11-24T17:28:40.302Z,65.45
2023-11-24T17:31:44.241Z,65.22
2023-11-24T17:34:47.578Z,65.31
2023-11-24T17:37:50.767Z,65.11
2023-11-24T17:40:53.869Z,65.13
2023-11-24T17:43:57.005Z,65.26
2023-11-24T17:47:06.422Z,65.51
2023-11-24T17:50:10.879Z,65.44
2023-11-24T17:53:14.000Z,65.77
2023-11-24T17:56:18.883Z,66.38
2023-11-24T17:59:23.683Z,65.84
2023-11-24T18:02:26.995Z,67.02
2023-11-24T18:05:29.920Z,66.28
2023-11-24T18:08:34.701Z,66.81
2023-11-24T18:11:38.234Z,66.30
2023-11-24T18:14:41.188Z,66.80
2023-11-24T18:17:44.155Z,66.85
2023-11-24T18:20:47.348Z,66.23
2023-11-24T18:23:50.813Z,66.68
2023-11-24T18:26:53.702Z,67.45
2023-11-24T18:29:56.547Z,67.29
2023-11-24T18:33:01.446Z,67.18
2023-11-24T18:36:04.703Z,67.38
2023-11-24T18:39:13.248Z,67.45
2023-11-24T18:42:16.129Z,67.27
2023-11-24T18:45:20.475Z,67.62
2023-11-24T18:48:23.437Z,67.05
2023-11-24T18:51:26.605Z,67.03
2023-11-24T18:54:30.021Z,66.52
2023-11-24T18:57:33.734Z,66.59
2023-11-24T19:00:36.864Z,66.58
2023-11-24T19:03:39.899Z,66.16
2023-11-24T19:06:43.169Z,67.32
2023-11-24T19:09:47.622Z,67.40
2023-11-24T19:12:52.676Z,67.07
2023-11-24T19:15:56.716Z,66.21
2023-11-24T19:18:59.677Z,66.65
2023-11-24T19:22:02.933Z,67.82
2023-11-24T19:25:06.911Z,66.98
2023-11-24T19:28:11.599Z,66.42
2023-11-24T19:31:14.657Z,66.08
2023-11-24T19:34:18.125Z,67.55
2023-11-24T19:37:21.367Z,66.87
2023-11-24T19:40:25.247Z,66.89
2023-11-24T19:43:28.437Z,68.11
2023-11-24T19:46:31.446Z,67.25
2023-11-24T19:49:34.418Z,66.54
2023-11-24T19:52:37.667Z,66.69
2023-11-24T19:55:41.086Z,66.74
2023-11-24T19:58:44.084Z,67.13
2023-11-24T20:01:47.155Z,66.74
2023-11-24T20:04:51.458Z,67.74
2023-11-24T20:07:54.344Z,69.04
2023-11-24T20:10:57.491Z,69.11
2023-11-24T20:14:00.810Z,68.26
2023-11-24T20:17:05.020Z,69.21
2023-11-24T20:20:10.066Z,67.77
2023-11-24T20:23:13.737Z,68.36
2023-11-24T20:26:18.203Z,68.14
2023-11-24T20:29:22.109Z,68.46
2023-11-24T20:32:25.316Z,68.23
2023-11-24T20:35:28.469Z,68.18
2023-11-24T20:38:31.666Z,68.61
2023-11-24T20:41:41.060Z,68.72
2023-11-24T20:44:44.060Z,68.38
2023-11-24T20:47:49.933Z,68.60
2023-11-24T20:50:52.969Z,68.80
2023-11-24T20:53:57.189Z,68.67
2023-11-24T20:57:00.869Z,68.82
2023-11-24T21:00:11.110Z,68.84
2023-11-24T21:03:15.087Z,68.11
2023-11-24T21:06:18.623Z,67.47
2023-11-24T21:09:21.845Z,67.92
2023-11-24T21:12:25.080Z,68.45
2023-11-24T21:15:34.785Z,68.85
2023-11-24T21:18:37.706Z,68.14
2023-11-24T21:21:40.685Z,68.49
2023-11-24T21:24:43.829Z,68.07
2023-11-24T21:27:46.608Z,67.65
2023-11-24T21:30:49.544Z,68.13
2023-11-24T21:33:52.542Z,68.06
2023-11-24T21:36:55.406Z,68.67
2023-11-24T21:40:08.575Z,68.08
2023-11-24T21:43:11.950Z,68.06
2023-11-24T21:46:22.288Z,68.12
2023-11-24T21:49:25.636Z,68.61
2023-11-24T21:52:28.556Z,68.27
2023-11-24T21:55:32.473Z,68.04
2023-11-24T21:58:36.415Z,68.24
2023-11-24T22:01:39.617Z,68.76
2023-11-24T22:04:43.205Z,69.04
2023-11-24T22:07:46.064Z,69.39
2023-11-24T22:10:52.635Z,69.22
2023-11-24T22:13:55.740Z,69.46
2023-11-24T22:16:58.723Z,69.74
2023-11-24T22:20:08.124Z,68.66
2023-11-24T22:23:11.663Z,68.97
2023-11-24T22:26:22.027Z,66.72
2023-11-24T22:29:27.279Z,66.74
2023-11-24T22:32:30.360Z,66.25
2023-11-24T22:35:33.572Z,66.33
2023-11-24T22:38:36.761Z,66.11
2023-11-24T22:41:40.135Z,66.24
2023-11-24T22:44:43.533Z,65.67
2023-11-24T22:47:46.656Z,65.39
2023-11-24T22:50:49.756Z,64.39
2023-11-24T22:53:53.763Z,62.60
2023-11-24T22:56:57.200Z,62.45
2023-11-24T23:00:00.172Z,62.54
2023-11-24T23:03:06.380Z,62.30
2023-11-24T23:06:11.633Z,63.07
2023-11-24T23:09:20.014Z,63.83
2023-11-24T23:12:23.158Z,64.24
2023-11-24T23:15:28.109Z,65.15
2023-11-24T23:18:31.352Z,64.52
2023-11-24T23:21:34.542Z,65.70
2023-11-24T23:24:37.637Z,66.21
2023-11-24T23:27:41.176Z,66.71
2023-11-24T23:30:44.905Z,67.53
2023-11-24T23:33:47.950Z,66.81
2023-11-24T23:36:51.084Z,66.69
2023-11-24T23:39:55.992Z,66.51
2023-11-24T23:42:58.875Z,65.88
2023-11-24T23:46:02.107Z,66.20
2023-11-24T23:49:05.200Z,66.44
2023-11-24T23:52:08.524Z,66.69
2023-11-24T23:55:11.501Z,67.02
2023-11-24T23:58:14.622Z,66.75
